Claude, Oregon
Current Conditions -  °F | °C
As of 7:53 AM on Friday 19 Dec 2014 (Local Time) from KONO Reporting Station
Light Rain Light Rain  
Wind Chill: 37°   Ceiling: 4100
Heat Index: 37°   Visibility: 5mi
Dew Point: 35°   Wind: 3mph
Humidity: 93%   Direction: 330°NNW
Pressure: 30.05"   Gusts: NA
Location:  44.0817°N, 117.014°W
Report Text: KONO 191453Z AUTO 33003KT 5SM -RA BR BKN041 OVC048 03/02 A3005 RMK AO2 SLP193 P0002 60002 T00280017 56005
Loading
Personal Weather Stations






























Interactive Weather Map New forecast layout! Learn more

10-Day Weather Forecast

Advertisements
Track Severe Weather on mobile